createdAt,value
2023-01-23T00:01:12.609Z,165.55
2023-01-23T00:03:19.740Z,178.85
2023-01-23T00:05:28.558Z,166.40
2023-01-23T00:07:35.642Z,176.88
2023-01-23T00:09:42.512Z,154.73
2023-01-23T00:11:49.695Z,167.95
2023-01-23T00:13:57.543Z,172.57
2023-01-23T00:16:08.223Z,159.52
2023-01-23T00:18:15.282Z,152.40
2023-01-23T00:20:22.835Z,150.20
2023-01-23T00:22:31.386Z,150.23
2023-01-23T00:24:38.623Z,140.23
2023-01-23T00:26:45.555Z,138.23
2023-01-23T00:28:53.231Z,114.00
2023-01-23T00:31:07.445Z,114.85
2023-01-23T00:33:14.617Z,108.55
2023-01-23T00:35:21.543Z,112.47
2023-01-23T00:37:30.361Z,115.88
2023-01-23T00:39:37.134Z,105.20
2023-01-23T00:41:44.983Z,98.22
2023-01-23T00:43:53.236Z,99.80
2023-01-23T00:46:00.572Z,94.10
2023-01-23T00:48:07.648Z,94.13
2023-01-23T00:50:15.754Z,112.75
2023-01-23T00:52:22.460Z,105.95
2023-01-23T00:54:31.472Z,105.05
2023-01-23T00:56:38.791Z,101.18
2023-01-23T00:58:46.122Z,99.68
2023-01-23T01:00:52.993Z,97.80
2023-01-23T01:03:00.157Z,94.65
2023-01-23T01:05:07.051Z,96.30
2023-01-23T01:07:14.062Z,95.28
2023-01-23T01:09:20.849Z,91.82
2023-01-23T01:11:29.672Z,93.85
2023-01-23T01:13:39.189Z,90.40
2023-01-23T01:15:46.259Z,94.38
2023-01-23T01:17:54.695Z,90.43
2023-01-23T01:20:01.833Z,96.20
2023-01-23T01:22:08.801Z,95.38
2023-01-23T01:24:15.983Z,86.53
2023-01-23T01:26:24.036Z,83.80
2023-01-23T01:28:34.137Z,83.85
2023-01-23T01:30:41.820Z,76.70
2023-01-23T01:32:49.016Z,78.90
2023-01-23T01:34:56.296Z,88.63
2023-01-23T01:37:03.323Z,89.65
2023-01-23T01:39:11.119Z,91.60
2023-01-23T01:41:18.403Z,105.45
2023-01-23T01:43:26.915Z,104.78
2023-01-23T01:46:09.631Z,114.70
2023-01-23T01:48:19.473Z,117.00
2023-01-23T01:50:26.606Z,107.47
2023-01-23T01:52:33.721Z,103.00
2023-01-23T01:54:43.731Z,104.25
2023-01-23T01:56:54.496Z,100.10
2023-01-23T01:59:03.625Z,109.72
2023-01-23T02:01:10.600Z,112.90
2023-01-23T02:03:20.549Z,123.93
2023-01-23T02:05:30.644Z,139.45
2023-01-23T02:07:42.746Z,169.30
2023-01-23T02:09:50.949Z,196.40
2023-01-23T02:11:58.439Z,211.82
2023-01-23T02:14:05.313Z,189.00
2023-01-23T02:16:15.372Z,179.80
2023-01-23T02:18:24.902Z,132.05
2023-01-23T02:20:32.951Z,121.30
2023-01-23T02:22:47.353Z,118.00
2023-01-23T02:25:06.359Z,110.18
2023-01-23T02:27:14.923Z,118.28
2023-01-23T02:29:23.538Z,109.53
2023-01-23T02:31:34.258Z,111.70
2023-01-23T02:33:56.110Z,112.85
2023-01-23T02:38:12.437Z,101.38
2023-01-23T02:40:19.911Z,103.10
2023-01-23T02:42:29.571Z,97.20
2023-01-23T02:44:39.215Z,103.13
2023-01-23T02:46:47.192Z,96.03
2023-01-23T02:48:54.334Z,97.47
2023-01-23T02:51:03.207Z,106.80
2023-01-23T02:53:10.489Z,92.88
2023-01-23T02:55:17.571Z,99.60
2023-01-23T02:57:24.445Z,93.10
2023-01-23T02:59:50.327Z,87.95
2023-01-23T03:01:58.702Z,93.07
2023-01-23T03:04:07.440Z,91.93
2023-01-23T03:06:14.724Z,94.45
2023-01-23T03:08:22.008Z,92.60
2023-01-23T03:10:30.009Z,102.13
2023-01-23T03:12:37.120Z,79.80
2023-01-23T03:14:45.863Z,89.65
2023-01-23T03:16:54.780Z,82.10
2023-01-23T03:19:06.370Z,86.25
2023-01-23T03:21:13.710Z,82.35
2023-01-23T03:23:20.652Z,89.03
2023-01-23T03:25:27.857Z,89.75
2023-01-23T03:27:36.063Z,80.20
2023-01-23T03:30:02.188Z,79.28
2023-01-23T03:32:10.447Z,74.78
2023-01-23T03:34:19.082Z,75.82
2023-01-23T03:36:26.382Z,73.65
2023-01-23T03:38:33.581Z,67.38
2023-01-23T03:40:57.105Z,65.40
2023-01-23T03:43:04.890Z,72.60
2023-01-23T03:45:15.193Z,66.22
2023-01-23T03:47:23.299Z,65.38
2023-01-23T03:49:30.281Z,70.20
2023-01-23T03:51:38.581Z,62.83
2023-01-23T03:53:45.613Z,63.60
2023-01-23T03:55:52.894Z,59.17
2023-01-23T03:58:00.332Z,64.90
2023-01-23T04:00:11.310Z,70.10
2023-01-23T04:02:27.264Z,60.83
2023-01-23T04:04:34.936Z,62.45
2023-01-23T04:06:45.403Z,64.85
2023-01-23T04:08:52.269Z,62.00
2023-01-23T04:11:08.307Z,60.85
2023-01-23T04:13:15.179Z,54.95
2023-01-23T04:15:22.717Z,55.00
2023-01-23T04:17:33.484Z,50.97
2023-01-23T04:19:40.819Z,53.78
2023-01-23T04:21:47.695Z,46.78
2023-01-23T04:23:54.825Z,50.42
2023-01-23T04:26:02.670Z,40.83
2023-01-23T04:28:09.853Z,44.53
2023-01-23T04:30:17.502Z,39.47
2023-01-23T04:32:24.882Z,45.78
2023-01-23T04:34:33.496Z,42.03
2023-01-23T04:36:41.155Z,37.83
2023-01-23T04:38:48.223Z,34.60
2023-01-23T04:41:03.554Z,39.95
2023-01-23T04:43:14.512Z,34.60
2023-01-23T04:45:26.147Z,37.70
2023-01-23T04:47:56.011Z,30.45
2023-01-23T04:50:05.246Z,28.90
2023-01-23T04:52:14.893Z,27.02
2023-01-23T04:54:31.279Z,26.33
2023-01-23T04:56:39.845Z,27.17
2023-01-23T04:58:50.862Z,26.73
2023-01-23T05:01:06.145Z,27.55
2023-01-23T05:03:15.416Z,25.58
2023-01-23T05:05:27.620Z,24.67
2023-01-23T05:07:39.363Z,27.40
2023-01-23T05:09:49.413Z,25.05
2023-01-23T05:11:56.634Z,23.77
2023-01-23T05:14:05.365Z,24.13
2023-01-23T05:16:13.611Z,23.65
2023-01-23T05:18:38.661Z,22.23
2023-01-23T05:20:47.718Z,22.50
2023-01-23T05:22:55.515Z,20.08
2023-01-23T05:25:12.873Z,24.55
2023-01-23T05:27:19.815Z,20.02
2023-01-23T05:29:28.954Z,18.38
2023-01-23T05:31:42.127Z,17.35
2023-01-23T05:34:20.522Z,14.20
2023-01-23T05:36:29.569Z,15.60
2023-01-23T05:38:36.801Z,13.95
2023-01-23T05:40:43.981Z,14.85
2023-01-23T05:42:53.877Z,16.25
2023-01-23T05:45:17.491Z,14.95
2023-01-23T05:47:24.367Z,15.65
2023-01-23T05:49:32.018Z,16.15
2023-01-23T05:51:41.189Z,15.68
2023-01-23T05:53:49.039Z,14.25
2023-01-23T05:55:57.599Z,13.48
2023-01-23T05:58:04.943Z,16.13
2023-01-23T06:00:31.724Z,13.95
2023-01-23T06:03:08.397Z,14.75
2023-01-23T06:05:29.456Z,16.83
2023-01-23T06:07:52.614Z,14.73
2023-01-23T06:10:00.143Z,17.35
2023-01-23T06:12:07.129Z,20.30
2023-01-23T06:14:14.312Z,20.00
2023-01-23T06:16:21.643Z,19.58
2023-01-23T06:18:29.084Z,22.65
2023-01-23T06:20:36.110Z,21.45
2023-01-23T06:22:43.528Z,20.10
2023-01-23T06:24:55.082Z,20.98
2023-01-23T06:27:02.416Z,22.10
2023-01-23T06:29:09.701Z,21.85
2023-01-23T06:31:18.088Z,21.67
2023-01-23T06:33:38.915Z,20.80
2023-01-23T06:35:49.421Z,22.50
2023-01-23T06:37:56.911Z,21.20
2023-01-23T06:40:06.917Z,24.55
2023-01-23T06:42:14.773Z,22.60
2023-01-23T06:44:26.226Z,23.15
2023-01-23T06:46:33.945Z,23.00
2023-01-23T06:48:41.881Z,22.65
2023-01-23T06:50:48.985Z,21.52
2023-01-23T06:52:56.556Z,20.63
2023-01-23T06:55:03.681Z,21.08
2023-01-23T06:57:14.099Z,24.02
2023-01-23T06:59:22.754Z,21.20
2023-01-23T07:01:30.331Z,23.90
2023-01-23T07:03:55.243Z,21.67
2023-01-23T07:06:08.058Z,23.30
2023-01-23T07:08:15.189Z,21.33
2023-01-23T07:10:24.008Z,21.17
2023-01-23T07:12:32.780Z,20.63
2023-01-23T07:14:40.355Z,24.52
2023-01-23T07:16:49.258Z,24.77
2023-01-23T07:18:56.575Z,25.98
2023-01-23T07:21:03.754Z,25.63
2023-01-23T07:23:12.322Z,24.02
2023-01-23T07:25:19.348Z,24.33
2023-01-23T07:27:26.434Z,21.05
2023-01-23T07:29:35.304Z,24.08
2023-01-23T07:31:42.628Z,24.55
2023-01-23T07:33:49.457Z,21.02
2023-01-23T07:35:56.740Z,21.83
2023-01-23T07:38:03.566Z,20.05
2023-01-23T07:40:11.614Z,22.67
2023-01-23T07:42:18.542Z,20.15
2023-01-23T07:44:26.131Z,21.90
2023-01-23T07:46:34.898Z,21.05
2023-01-23T07:48:42.287Z,20.60
2023-01-23T07:50:49.295Z,20.48
2023-01-23T07:52:57.019Z,23.67
2023-01-23T07:55:04.089Z,23.25
2023-01-23T07:57:11.326Z,20.55
2023-01-23T07:59:18.246Z,21.33
2023-01-23T08:01:25.031Z,23.70
2023-01-23T08:03:33.847Z,22.98
2023-01-23T08:05:42.898Z,18.98
2023-01-23T08:07:52.299Z,22.40
2023-01-23T08:10:04.796Z,18.40
2023-01-23T08:12:12.138Z,19.25
2023-01-23T08:14:19.014Z,23.25
2023-01-23T08:16:26.203Z,18.73
2023-01-23T08:18:36.150Z,23.52
2023-01-23T08:20:43.273Z,18.83
2023-01-23T08:22:51.689Z,20.67
2023-01-23T08:24:58.917Z,18.13
2023-01-23T08:27:05.845Z,19.55
2023-01-23T08:29:13.688Z,19.17
2023-01-23T08:31:20.933Z,18.33
2023-01-23T08:33:28.105Z,19.50
2023-01-23T08:35:36.649Z,22.27
2023-01-23T08:37:43.850Z,16.25
2023-01-23T08:39:50.778Z,22.80
2023-01-23T08:41:58.416Z,18.45
2023-01-23T08:44:05.552Z,18.63
2023-01-23T08:46:13.249Z,21.83
2023-01-23T08:48:21.144Z,16.00
2023-01-23T08:50:27.968Z,18.30
2023-01-23T08:52:37.128Z,19.23
2023-01-23T08:54:43.917Z,17.48
2023-01-23T08:56:51.098Z,19.65
2023-01-23T08:58:58.133Z,18.20
2023-01-23T09:01:05.421Z,17.17
2023-01-23T09:03:12.691Z,18.15
2023-01-23T09:05:20.013Z,17.35
2023-01-23T09:07:27.206Z,21.00
2023-01-23T09:09:36.185Z,19.52
2023-01-23T09:11:43.059Z,26.75
2023-01-23T09:13:52.924Z,22.50
2023-01-23T09:16:01.057Z,23.90
2023-01-23T09:18:08.336Z,20.30
2023-01-23T09:20:16.494Z,20.40
2023-01-23T09:22:23.829Z,19.58
2023-01-23T09:24:30.655Z,20.13
2023-01-23T09:26:39.571Z,22.00
2023-01-23T09:28:46.702Z,20.38
2023-01-23T09:30:53.749Z,22.63
2023-01-23T09:33:00.658Z,20.17
2023-01-23T09:35:08.249Z,24.48
2023-01-23T09:37:15.072Z,21.85
2023-01-23T09:39:22.058Z,23.75
2023-01-23T09:41:31.079Z,23.13
2023-01-23T09:43:48.495Z,23.75
2023-01-23T09:46:06.015Z,25.13
2023-01-23T09:48:23.906Z,24.00
2023-01-23T09:50:34.308Z,21.95
2023-01-23T09:52:46.457Z,21.45
2023-01-23T09:54:58.455Z,22.00
2023-01-23T09:57:14.592Z,20.00
2023-01-23T09:59:34.530Z,26.38
2023-01-23T10:01:42.058Z,24.70
2023-01-23T10:03:49.043Z,28.15
2023-01-23T10:06:15.628Z,24.17
2023-01-23T10:08:30.487Z,22.20
2023-01-23T10:10:59.859Z,25.52
2023-01-23T10:13:11.484Z,26.02
2023-01-23T10:15:36.120Z,24.02
2023-01-23T10:17:50.932Z,22.85
2023-01-23T10:20:21.687Z,23.50
2023-01-23T10:22:42.061Z,23.88
2023-01-23T10:24:54.252Z,25.60
2023-01-23T10:27:11.981Z,24.67
2023-01-23T10:29:29.673Z,21.52
2023-01-23T10:31:42.698Z,23.52
2023-01-23T10:33:54.211Z,20.92
2023-01-23T10:36:06.614Z,22.45
2023-01-23T10:38:27.981Z,22.73
2023-01-23T10:40:51.544Z,19.90
2023-01-23T10:43:04.665Z,22.40
2023-01-23T10:45:20.909Z,21.92
2023-01-23T10:47:37.162Z,20.40
2023-01-23T10:49:49.051Z,20.60
2023-01-23T10:51:56.073Z,21.30
2023-01-23T10:54:31.882Z,21.20
2023-01-23T10:56:42.129Z,26.10
2023-01-23T10:58:50.334Z,21.42
2023-01-23T11:00:57.802Z,23.65
2023-01-23T11:03:29.581Z,23.65
2023-01-23T11:07:59.870Z,24.00
2023-01-23T11:10:20.837Z,24.80
2023-01-23T11:12:29.648Z,23.95
2023-01-23T11:14:39.434Z,24.23
2023-01-23T11:16:46.719Z,25.48
2023-01-23T11:18:57.625Z,23.85
2023-01-23T11:21:05.468Z,23.02
2023-01-23T11:23:20.901Z,21.17
2023-01-23T11:25:36.240Z,24.60
2023-01-23T11:27:43.313Z,31.10
2023-01-23T11:30:25.683Z,34.72
2023-01-23T11:32:35.826Z,43.22
2023-01-23T11:34:48.790Z,49.92
2023-01-23T11:37:02.933Z,55.72
2023-01-23T11:39:18.624Z,44.45
2023-01-23T11:41:30.145Z,52.20
2023-01-23T11:43:37.540Z,57.38
2023-01-23T11:45:57.045Z,64.13
2023-01-23T11:48:14.929Z,60.13
2023-01-23T11:50:54.474Z,52.72
2023-01-23T11:53:08.730Z,55.28
2023-01-23T11:55:39.663Z,57.80
2023-01-23T11:57:56.623Z,58.45
2023-01-23T12:00:15.178Z,49.47
2023-01-23T12:02:48.191Z,51.22
2023-01-23T12:05:23.234Z,56.92
2023-01-23T12:07:34.421Z,56.42
2023-01-23T12:09:48.167Z,54.67
2023-01-23T12:12:10.900Z,59.30
2023-01-23T12:14:24.289Z,56.15
2023-01-23T12:16:49.015Z,58.47
2023-01-23T12:19:11.879Z,56.58
2023-01-23T12:21:23.763Z,53.60
2023-01-23T12:23:48.096Z,50.45
2023-01-23T12:26:06.372Z,48.97
2023-01-23T12:28:26.274Z,45.58
2023-01-23T12:31:07.717Z,45.80
2023-01-23T12:33:30.345Z,47.40
2023-01-23T12:35:46.492Z,43.45
2023-01-23T12:38:05.652Z,41.00
2023-01-23T12:40:23.676Z,40.05
2023-01-23T12:42:35.171Z,38.60
2023-01-23T12:44:46.243Z,46.23
2023-01-23T12:46:58.078Z,39.83
2023-01-23T12:49:17.146Z,39.63
2023-01-23T12:51:27.784Z,39.42
2023-01-23T12:53:40.052Z,45.03
2023-01-23T12:55:58.817Z,31.65
2023-01-23T12:58:09.878Z,37.60
2023-01-23T13:00:36.849Z,34.08
2023-01-23T13:02:53.123Z,34.20
2023-01-23T13:05:12.900Z,35.47
2023-01-23T13:07:36.943Z,33.85
2023-01-23T13:10:02.751Z,32.65
2023-01-23T13:12:22.832Z,36.97
2023-01-23T13:15:06.952Z,40.42
2023-01-23T13:17:33.883Z,42.53
2023-01-23T13:20:02.865Z,34.35
2023-01-23T13:22:30.623Z,37.72
2023-01-23T13:25:04.791Z,38.08
2023-01-23T13:27:49.043Z,33.75
2023-01-23T13:29:59.776Z,32.97
2023-01-23T13:32:24.960Z,29.75
2023-01-23T13:34:43.977Z,36.72
2023-01-23T13:36:51.922Z,34.00
2023-01-23T13:39:26.495Z,41.20
2023-01-23T13:41:34.712Z,36.97
2023-01-23T13:43:55.159Z,41.22
2023-01-23T13:46:04.309Z,38.78
2023-01-23T14:21:56.526Z,35.38
2023-01-23T14:24:04.993Z,33.53
2023-01-23T14:26:17.648Z,37.08
2023-01-23T14:28:24.624Z,34.22
2023-01-23T14:30:32.677Z,39.50
2023-01-23T14:32:41.421Z,35.67
2023-01-23T14:34:48.883Z,31.05
2023-01-23T14:36:59.253Z,40.00
2023-01-23T14:39:06.836Z,37.05
2023-01-23T14:41:14.116Z,39.10
2023-01-23T14:43:23.967Z,35.78
2023-01-23T14:45:34.177Z,36.30
2023-01-23T14:47:48.886Z,38.15
2023-01-23T14:50:00.852Z,42.28
2023-01-23T14:52:10.185Z,41.03
2023-01-23T14:54:23.236Z,40.10
2023-01-23T14:56:34.342Z,49.47
2023-01-23T14:58:42.612Z,52.47
2023-01-23T15:00:51.054Z,49.63
2023-01-23T15:02:59.766Z,48.92
2023-01-23T15:05:20.687Z,41.65
2023-01-23T15:07:27.602Z,42.10
2023-01-23T15:09:38.072Z,40.85
2023-01-23T15:11:45.196Z,43.85
2023-01-23T15:13:55.909Z,48.75
2023-01-23T15:16:05.238Z,39.90
2023-01-23T15:18:25.581Z,42.70
2023-01-23T15:20:39.470Z,50.92
2023-01-23T15:22:46.444Z,48.03
2023-01-23T15:24:53.758Z,48.00
2023-01-23T15:27:04.539Z,43.00
2023-01-23T15:29:22.355Z,41.35
2023-01-23T15:31:32.156Z,49.10
2023-01-23T15:33:41.347Z,44.78
2023-01-23T15:35:48.208Z,50.72
2023-01-23T15:38:00.024Z,50.53
2023-01-23T15:40:18.051Z,50.20
2023-01-23T15:42:33.022Z,43.30
2023-01-23T15:44:40.156Z,45.30
2023-01-23T15:46:47.274Z,40.45
2023-01-23T15:48:56.715Z,45.33
2023-01-23T15:51:03.841Z,46.22
2023-01-23T15:53:15.515Z,50.35
2023-01-23T15:57:30.099Z,44.83
2023-01-23T15:59:38.328Z,44.65
2023-01-23T16:01:45.131Z,40.75
2023-01-23T16:03:51.998Z,40.35
2023-01-23T16:06:01.139Z,46.28
2023-01-23T16:08:09.056Z,43.78
2023-01-23T16:10:22.300Z,44.63
2023-01-23T16:12:31.985Z,43.92
2023-01-23T16:14:39.222Z,44.85
2023-01-23T16:16:46.399Z,46.83
2023-01-23T16:18:53.464Z,36.40
2023-01-23T16:21:02.084Z,46.60
2023-01-23T16:23:15.219Z,48.80
2023-01-23T16:25:38.244Z,45.80
2023-01-23T16:27:49.445Z,43.65
2023-01-23T16:29:56.625Z,44.30
2023-01-23T16:32:04.904Z,40.88
2023-01-23T16:34:12.257Z,42.72
2023-01-23T16:36:22.366Z,42.45
2023-01-23T16:38:30.839Z,45.20
2023-01-23T16:40:38.172Z,42.35
2023-01-23T16:42:46.821Z,43.03
2023-01-23T16:44:54.227Z,45.28
2023-01-23T16:47:00.987Z,47.90
2023-01-23T16:49:08.282Z,44.90
2023-01-23T16:51:22.709Z,44.75
2023-01-23T16:53:32.096Z,47.25
2023-01-23T16:55:42.935Z,47.97
2023-01-23T16:57:50.261Z,41.13
2023-01-23T16:59:57.912Z,45.88
2023-01-23T17:02:16.706Z,41.88
2023-01-23T17:04:24.609Z,44.20
2023-01-23T17:06:34.060Z,47.53
2023-01-23T17:08:41.022Z,44.15
2023-01-23T17:10:50.150Z,46.75
2023-01-23T17:12:59.820Z,46.20
2023-01-23T17:15:08.039Z,45.78
2023-01-23T17:17:18.450Z,44.05
2023-01-23T17:19:29.176Z,42.70
2023-01-23T17:21:38.555Z,48.65
2023-01-23T17:23:45.503Z,39.78
2023-01-23T17:26:00.362Z,50.80
2023-01-23T17:28:13.163Z,50.92
2023-01-23T17:30:22.273Z,41.10
2023-01-23T17:32:34.071Z,43.33
2023-01-23T17:34:49.990Z,42.22
2023-01-23T17:37:00.409Z,44.40
2023-01-23T17:39:09.443Z,43.20
2023-01-23T17:41:20.167Z,47.10
2023-01-23T17:43:27.030Z,46.95
2023-01-23T17:45:34.405Z,41.65
2023-01-23T17:47:42.769Z,46.25
2023-01-23T17:49:55.374Z,43.40
2023-01-23T17:52:04.647Z,43.38
2023-01-23T17:54:21.683Z,45.42
2023-01-23T17:56:28.649Z,49.75
2023-01-23T17:58:36.084Z,52.35
2023-01-23T18:00:44.772Z,51.45
2023-01-23T18:02:55.259Z,53.40
2023-01-23T18:05:02.543Z,46.30
2023-01-23T18:07:13.416Z,53.60
2023-01-23T18:09:22.078Z,49.30
2023-01-23T18:11:29.270Z,52.25
2023-01-23T18:13:49.139Z,55.67
2023-01-23T18:16:06.359Z,50.95
2023-01-23T18:18:28.546Z,58.17
2023-01-23T18:20:37.106Z,49.17
2023-01-23T18:22:46.440Z,50.08
2023-01-23T18:24:54.446Z,50.05
2023-01-23T18:27:03.374Z,56.38
2023-01-23T18:29:23.749Z,52.83
2023-01-23T18:31:40.723Z,57.83
2023-01-23T18:34:09.506Z,59.75
2023-01-23T18:36:31.733Z,59.03
2023-01-23T18:38:49.269Z,55.00
2023-01-23T18:41:11.169Z,54.88
2023-01-23T18:43:31.370Z,50.83
2023-01-23T18:45:38.991Z,51.67
2023-01-23T18:47:46.621Z,53.97
2023-01-23T18:49:53.991Z,52.85
2023-01-23T18:52:09.398Z,52.33
2023-01-23T18:54:31.963Z,55.58
2023-01-23T18:56:49.487Z,52.90
2023-01-23T18:59:11.563Z,56.03
2023-01-23T19:01:26.833Z,56.03
2023-01-23T19:03:41.947Z,63.58
2023-01-23T19:05:49.376Z,62.45
2023-01-23T19:07:56.775Z,60.38
2023-01-23T19:10:06.366Z,56.25
2023-01-23T19:12:25.784Z,59.92
2023-01-23T19:14:49.754Z,63.85
2023-01-23T19:17:04.233Z,64.47
2023-01-23T19:19:19.730Z,70.85
2023-01-23T19:21:29.373Z,77.30
2023-01-23T19:23:42.840Z,72.70
2023-01-23T19:25:51.942Z,68.30
2023-01-23T19:28:01.216Z,64.80
2023-01-23T19:30:08.903Z,65.57
2023-01-23T19:32:16.771Z,67.35
2023-01-23T19:34:23.784Z,64.47
2023-01-23T19:36:32.606Z,70.45
2023-01-23T19:38:39.424Z,64.30
2023-01-23T19:40:47.062Z,65.47
2023-01-23T19:43:12.736Z,56.47
2023-01-23T19:45:23.433Z,54.28
2023-01-23T19:47:30.471Z,61.78
2023-01-23T19:49:37.601Z,59.92
2023-01-23T19:51:45.036Z,60.67
2023-01-23T19:53:52.482Z,57.75
2023-01-23T19:56:02.320Z,56.00
2023-01-23T19:58:11.455Z,56.10
2023-01-23T20:00:20.229Z,56.78
2023-01-23T20:02:28.261Z,54.50
2023-01-23T20:04:35.231Z,52.65
2023-01-23T20:06:42.562Z,52.85
2023-01-23T20:08:49.506Z,60.80
2023-01-23T20:10:56.636Z,50.17
2023-01-23T20:13:03.494Z,54.35
2023-01-23T20:15:14.633Z,45.75
2023-01-23T20:17:21.503Z,44.47
2023-01-23T20:19:28.643Z,53.58
2023-01-23T20:21:35.616Z,44.03
2023-01-23T20:23:43.509Z,50.17
2023-01-23T20:25:58.886Z,48.58
2023-01-23T20:28:05.966Z,44.35
2023-01-23T20:30:17.709Z,43.05
2023-01-23T20:32:25.002Z,45.72
2023-01-23T20:34:33.313Z,41.88
2023-01-23T20:36:41.513Z,40.50
2023-01-23T20:38:48.672Z,43.13
2023-01-23T20:40:55.968Z,41.80
2023-01-23T20:43:02.790Z,42.72
2023-01-23T20:45:10.997Z,39.40
2023-01-23T20:47:19.666Z,44.75
2023-01-23T20:49:26.826Z,45.72
2023-01-23T20:51:33.624Z,43.83
2023-01-23T20:53:50.270Z,43.72
2023-01-23T20:55:57.468Z,38.83
2023-01-23T20:58:21.540Z,42.47
2023-01-23T21:00:28.567Z,38.55
2023-01-23T21:02:38.025Z,40.72
2023-01-23T21:04:46.401Z,38.30
2023-01-23T21:06:53.483Z,40.45
2023-01-23T21:09:00.508Z,37.33
2023-01-23T21:11:11.737Z,38.25
2023-01-23T21:13:18.661Z,38.47
2023-01-23T21:15:25.997Z,35.75
2023-01-23T21:17:32.819Z,34.70
2023-01-23T21:19:42.422Z,33.30
2023-01-23T21:21:49.434Z,36.50
2023-01-23T21:23:56.799Z,41.20
2023-01-23T21:26:04.515Z,35.17
2023-01-23T21:28:11.655Z,39.88
2023-01-23T21:30:19.030Z,40.60
2023-01-23T21:32:26.252Z,37.63
2023-01-23T21:34:33.339Z,37.95
2023-01-23T21:36:43.340Z,40.17
2023-01-23T21:38:51.333Z,35.38
2023-01-23T21:40:58.622Z,34.80
2023-01-23T21:43:05.605Z,37.17
2023-01-23T21:45:13.504Z,33.53
2023-01-23T21:47:20.454Z,33.28
2023-01-23T21:49:27.661Z,36.15
2023-01-23T21:51:35.000Z,34.15
2023-01-23T21:53:45.616Z,33.10
2023-01-23T21:55:56.015Z,38.08
2023-01-23T21:58:03.765Z,36.88
2023-01-23T22:00:28.304Z,36.97
2023-01-23T22:02:35.523Z,38.83
2023-01-23T22:04:42.536Z,39.25
2023-01-23T22:06:50.508Z,44.92
2023-01-23T22:09:00.352Z,43.67
2023-01-23T22:11:09.120Z,45.58
2023-01-23T22:13:16.009Z,48.47
2023-01-23T22:15:23.670Z,48.25
2023-01-23T22:17:30.872Z,48.28
2023-01-23T22:19:38.205Z,47.85
2023-01-23T22:21:47.263Z,41.35
2023-01-23T22:23:54.239Z,36.85
2023-01-23T22:26:04.159Z,40.33
2023-01-23T22:28:11.384Z,39.40
2023-01-23T22:30:18.567Z,42.42
2023-01-23T22:32:25.852Z,34.97
2023-01-23T22:34:32.829Z,35.28
2023-01-23T22:36:39.975Z,35.67
2023-01-23T22:38:47.295Z,42.90
2023-01-23T22:41:02.434Z,44.90
2023-01-23T22:43:10.221Z,40.22
2023-01-23T22:45:17.540Z,41.10
2023-01-23T22:47:24.672Z,44.47
2023-01-23T22:49:31.842Z,39.97
2023-01-23T22:51:38.984Z,35.60
2023-01-23T22:53:46.218Z,38.05
2023-01-23T22:55:53.045Z,39.60
2023-01-23T22:58:01.919Z,42.35
2023-01-23T23:00:12.532Z,40.38
2023-01-23T23:02:19.602Z,41.00
2023-01-23T23:04:26.518Z,42.60
2023-01-23T23:06:33.656Z,43.53
2023-01-23T23:08:40.745Z,45.75
2023-01-23T23:10:48.021Z,41.17
2023-01-23T23:12:54.916Z,43.65
2023-01-23T23:15:04.077Z,46.58
2023-01-23T23:17:11.201Z,42.05
2023-01-23T23:19:18.337Z,45.15
2023-01-23T23:21:27.006Z,42.97
2023-01-23T23:23:34.283Z,49.13
2023-01-23T23:25:41.227Z,45.63
2023-01-23T23:27:48.600Z,44.30
2023-01-23T23:29:55.520Z,49.65
2023-01-23T23:32:04.534Z,44.75
2023-01-23T23:34:11.623Z,47.60
2023-01-23T23:36:18.655Z,47.53
2023-01-23T23:38:25.573Z,50.13
2023-01-23T23:40:32.814Z,48.67
2023-01-23T23:42:39.737Z,49.28
2023-01-23T23:44:46.969Z,45.17
2023-01-23T23:46:53.997Z,45.45
2023-01-23T23:49:03.029Z,49.28
2023-01-23T23:51:12.207Z,52.88
2023-01-23T23:53:20.135Z,53.03
2023-01-23T23:55:27.074Z,51.45
2023-01-23T23:57:34.678Z,52.22
2023-01-23T23:59:41.548Z,54.88
